createdAt,value
2019-03-05T00:00:57.064Z,99394.85
2019-03-05T00:03:27.581Z,99395.84
2019-03-05T00:05:57.986Z,99395.52
2019-03-05T00:08:28.450Z,99406.19
2019-03-05T00:10:58.954Z,99405.66
2019-03-05T00:13:29.359Z,99401.19
2019-03-05T00:15:59.916Z,99400.23
2019-03-05T00:18:30.326Z,99397.63
2019-03-05T00:21:00.787Z,99398.44
2019-03-05T00:24:07.901Z,99391.52
2019-03-05T00:26:38.427Z,99396.69
2019-03-05T00:29:58.461Z,99391.61
2019-03-05T00:32:28.985Z,99394.73
2019-03-05T00:35:33.233Z,99390.38
2019-03-05T00:38:21.194Z,99387.28
2019-03-05T00:41:19.802Z,99387.55
2019-03-05T00:44:27.802Z,99383.09
2019-03-05T00:47:42.316Z,99390.13
2019-03-05T00:50:46.115Z,99384.31
2019-03-05T00:53:52.657Z,99381.02
2019-03-05T00:56:42.449Z,99378.23
2019-03-05T00:59:56.724Z,99377.85
2019-03-05T01:02:38.146Z,99378.78
2019-03-05T01:05:47.670Z,99370.83
2019-03-05T01:08:19.731Z,99366.38
2019-03-05T01:10:50.304Z,99366.92
2019-03-05T01:13:20.944Z,99356.58
2019-03-05T01:15:51.622Z,99364.45
2019-03-05T01:18:22.070Z,99347.31
2019-03-05T01:20:52.745Z,99347.31
2019-03-05T01:23:23.249Z,99341.04
2019-03-05T01:25:53.748Z,99339.88
2019-03-05T01:28:24.416Z,99339.17
2019-03-05T01:31:19.668Z,99343.60
2019-03-05T01:33:58.855Z,99336.69
2019-03-05T01:36:31.736Z,99337.73
2019-03-05T01:39:25.703Z,99337.73
2019-03-05T01:41:56.304Z,99329.68
2019-03-05T01:44:26.824Z,99328.22
2019-03-05T01:46:57.283Z,99332.15
2019-03-05T01:49:27.744Z,99338.67
2019-03-05T01:51:58.333Z,99321.01
2019-03-05T01:54:28.788Z,99332.39
2019-03-05T01:56:59.286Z,99331.33
2019-03-05T01:59:29.753Z,99321.83
2019-03-05T02:02:00.255Z,99323.50
2019-03-05T02:04:31.111Z,99320.09
2019-03-05T02:07:01.585Z,99324.84
2019-03-05T02:09:32.037Z,99328.64
2019-03-05T02:12:02.644Z,99333.72
2019-03-05T02:14:33.241Z,99333.72
2019-03-05T02:17:03.837Z,99339.48
2019-03-05T02:19:45.739Z,99319.46
2019-03-05T02:22:28.722Z,99334.55
2019-03-05T02:25:15.131Z,99338.87
2019-03-05T02:28:10.456Z,99335.66
2019-03-05T02:31:11.556Z,99339.36
2019-03-05T02:34:10.404Z,99343.09
2019-03-05T02:37:24.608Z,99350.08
2019-03-05T02:40:19.332Z,99351.22
2019-03-05T02:43:15.375Z,99345.33
2019-03-05T02:46:05.527Z,99333.55
2019-03-05T02:49:31.667Z,99339.72
2019-03-05T02:52:38.603Z,99345.98
2019-03-05T02:55:45.152Z,99345.78
2019-03-05T02:58:13.640Z,99337.02
2019-03-05T03:01:18.219Z,99340.08
2019-03-05T03:03:52.006Z,99344.52
2019-03-05T03:06:27.816Z,99321.82
2019-03-05T03:09:42.952Z,99318.19
2019-03-05T03:12:13.610Z,99310.86
2019-03-05T03:14:44.069Z,99318.27
2019-03-05T03:17:14.761Z,99316.34
2019-03-05T03:19:45.461Z,99328.78
2019-03-05T03:22:15.921Z,99327.52
2019-03-05T03:24:46.394Z,99314.55
2019-03-05T03:27:16.982Z,99316.18
2019-03-05T03:29:47.445Z,99320.09
2019-03-05T03:32:17.959Z,99315.64
2019-03-05T03:34:48.496Z,99306.07
2019-03-05T03:37:18.963Z,99309.76
2019-03-05T03:39:49.450Z,99310.80
2019-03-05T03:42:19.923Z,99310.80
2019-03-05T03:44:50.407Z,99312.66
2019-03-05T03:47:20.865Z,99309.73
2019-03-05T03:49:51.351Z,99326.03
2019-03-05T03:52:21.856Z,99326.52
2019-03-05T03:54:52.458Z,99324.06
2019-03-05T03:57:22.916Z,99318.56
2019-03-05T03:59:53.520Z,99312.34
2019-03-05T04:02:23.983Z,99309.66
2019-03-05T04:04:54.589Z,99306.05
2019-03-05T04:07:25.064Z,99308.44
2019-03-05T04:09:55.523Z,99310.78
2019-03-05T04:12:26.152Z,99311.38
2019-03-05T04:14:56.626Z,99309.33
2019-03-05T04:17:27.120Z,99318.86
2019-03-05T04:19:57.562Z,99318.86
2019-03-05T04:22:28.329Z,99329.42
2019-03-05T04:24:58.741Z,99341.92
2019-03-05T04:27:29.229Z,99341.92
2019-03-05T04:29:59.704Z,99327.30
2019-03-05T04:32:30.201Z,99346.34
2019-03-05T04:35:00.702Z,99363.45
2019-03-05T04:37:31.196Z,99365.31
2019-03-05T04:40:03.264Z,99362.00
2019-03-05T04:42:34.007Z,99370.33
2019-03-05T04:45:16.901Z,99364.98
2019-03-05T04:47:47.407Z,99370.52
2019-03-05T04:50:28.285Z,99357.66
2019-03-05T04:52:58.810Z,99362.44
2019-03-05T04:55:29.281Z,99362.44
2019-03-05T04:57:59.852Z,99370.98
2019-03-05T05:00:30.360Z,99364.00
2019-03-05T05:03:00.967Z,99363.94
2019-03-05T05:05:31.426Z,99364.27
2019-03-05T05:08:01.940Z,99354.78
2019-03-05T05:10:32.444Z,99362.22
2019-03-05T05:13:03.017Z,99376.39
2019-03-05T05:15:34.230Z,99376.39
2019-03-05T05:18:05.093Z,99368.28
2019-03-05T05:20:35.552Z,99370.29
2019-03-05T05:23:06.153Z,99375.38
2019-03-05T05:25:36.613Z,99371.05
2019-03-05T05:28:07.074Z,99380.90
2019-03-05T05:30:39.038Z,99391.78
2019-03-05T05:33:09.627Z,99401.19
2019-03-05T05:35:40.219Z,99408.59
2019-03-05T05:38:10.679Z,99412.50
2019-03-05T05:40:43.056Z,99408.73
2019-03-05T05:43:25.120Z,99405.17
2019-03-05T05:45:55.821Z,99412.57
2019-03-05T05:48:26.322Z,99412.57
2019-03-05T05:50:56.790Z,99406.09
2019-03-05T05:53:27.318Z,99410.12
2019-03-05T05:55:57.924Z,99419.31
2019-03-05T05:58:28.405Z,99425.62
2019-03-05T06:01:00.892Z,99426.12
2019-03-05T06:03:31.411Z,99426.00
2019-03-05T06:06:02.011Z,99432.00
2019-03-05T06:08:32.490Z,99434.03
2019-03-05T06:11:02.977Z,99436.24
2019-03-05T06:13:33.511Z,99439.44
2019-03-05T06:16:04.027Z,99434.40
2019-03-05T06:18:34.548Z,99435.92
2019-03-05T06:21:05.033Z,99445.20
2019-03-05T06:23:35.557Z,99442.11
2019-03-05T06:26:08.758Z,99439.36
2019-03-05T06:28:38.357Z,99423.23
2019-03-05T06:31:08.827Z,99426.89
2019-03-05T06:33:39.339Z,99433.14
2019-03-05T06:36:10.330Z,99438.37
2019-03-05T06:38:41.748Z,99441.53
2019-03-05T06:41:12.210Z,99435.59
2019-03-05T06:43:42.779Z,99438.61
2019-03-05T06:46:13.329Z,99444.92
2019-03-05T06:49:05.842Z,99444.11
2019-03-05T06:51:50.600Z,99450.34
2019-03-05T06:54:19.253Z,99435.88
2019-03-05T06:56:49.722Z,99441.80
2019-03-05T06:59:20.245Z,99447.47
2019-03-05T07:01:50.827Z,99437.87
2019-03-05T07:04:21.322Z,99440.20
2019-03-05T07:06:59.276Z,99444.20
2019-03-05T07:09:39.646Z,99448.63
2019-03-05T07:12:38.902Z,99445.20
2019-03-05T07:15:32.385Z,99451.66
2019-03-05T07:18:07.794Z,99444.17
2019-03-05T07:21:13.478Z,99436.58
2019-03-05T07:24:15.100Z,99444.59
2019-03-05T07:26:45.662Z,99429.87
2019-03-05T07:29:18.026Z,99436.39
2019-03-05T07:31:48.354Z,99433.30
2019-03-05T07:34:25.319Z,99436.84
2019-03-05T07:36:55.943Z,99440.87
2019-03-05T07:39:26.618Z,99447.41
2019-03-05T07:41:57.136Z,99445.00
2019-03-05T07:44:27.608Z,99442.88
2019-03-05T07:46:58.096Z,99433.55
2019-03-05T07:49:28.656Z,99427.86
2019-03-05T07:51:59.162Z,99428.34
2019-03-05T07:54:29.634Z,99423.84
2019-03-05T07:57:00.182Z,99426.87
2019-03-05T07:59:30.697Z,99440.27
2019-03-05T08:02:01.185Z,99432.13
2019-03-05T08:04:31.697Z,99425.00
2019-03-05T08:07:02.201Z,99423.67
2019-03-05T08:09:37.127Z,99338.86
2019-03-05T08:12:21.348Z,99429.27
2019-03-05T08:15:10.130Z,99435.80
2019-03-05T08:17:40.636Z,99428.39
2019-03-05T08:20:11.999Z,99427.06
2019-03-05T08:22:42.875Z,99423.86
2019-03-05T08:25:15.530Z,99417.00
2019-03-05T08:27:46.051Z,99418.08
2019-03-05T08:30:16.865Z,99420.51
2019-03-05T08:32:47.327Z,99418.50
2019-03-05T08:35:17.989Z,99415.38
2019-03-05T08:37:48.434Z,99418.48
2019-03-05T08:40:19.161Z,99407.77
2019-03-05T08:42:49.681Z,99417.78
2019-03-05T08:45:28.802Z,99413.38
2019-03-05T08:47:52.579Z,99415.39
2019-03-05T08:50:23.095Z,99414.45
2019-03-05T08:52:53.609Z,99409.91
2019-03-05T08:55:24.113Z,99408.05
2019-03-05T08:57:54.593Z,99401.27
2019-03-05T09:00:25.093Z,99406.52
2019-03-05T09:02:55.807Z,99396.77
2019-03-05T09:05:26.306Z,99398.95
2019-03-05T09:07:56.838Z,99396.21
2019-03-05T09:10:27.641Z,99400.66
2019-03-05T09:12:58.151Z,99401.52
2019-03-05T09:15:28.706Z,99396.40
2019-03-05T09:17:59.282Z,99397.55
2019-03-05T09:20:30.102Z,99398.44
2019-03-05T09:23:00.564Z,99401.75
2019-03-05T09:25:31.143Z,99407.49
2019-03-05T09:28:01.884Z,99406.45
2019-03-05T09:30:32.448Z,99407.28
2019-03-05T09:33:02.963Z,99407.55
2019-03-05T09:35:33.571Z,99401.84
2019-03-05T09:38:04.227Z,99396.95
2019-03-05T09:40:34.837Z,99389.86
2019-03-05T09:43:05.430Z,99392.58
2019-03-05T09:45:35.930Z,99393.69
2019-03-05T09:48:06.539Z,99390.66
2019-03-05T09:50:37.151Z,99391.99
2019-03-05T09:53:07.814Z,99386.83
2019-03-05T09:55:38.403Z,99379.14
2019-03-05T09:58:09.561Z,99376.09
2019-03-05T10:00:40.345Z,99370.58
2019-03-05T10:03:11.121Z,99365.05
2019-03-05T10:05:41.737Z,99371.23
2019-03-05T10:08:12.248Z,99375.05
2019-03-05T10:10:42.831Z,99372.58
2019-03-05T10:13:13.885Z,99349.23
2019-03-05T10:15:44.470Z,99355.19
2019-03-05T10:18:14.995Z,99355.78
2019-03-05T10:20:46.129Z,99352.48
2019-03-05T10:23:16.606Z,99343.65
2019-03-05T10:25:47.290Z,99336.45
2019-03-05T10:28:17.917Z,99336.90
2019-03-05T10:30:48.497Z,99269.03
2019-03-05T10:33:19.569Z,99331.55
2019-03-05T10:35:50.327Z,99322.47
2019-03-05T10:38:21.037Z,99316.02
2019-03-05T10:40:52.555Z,99313.47
2019-03-05T10:43:23.245Z,99300.98
2019-03-05T10:45:54.172Z,99295.98
2019-03-05T10:48:25.345Z,99289.95
2019-03-05T10:50:56.174Z,99287.52
2019-03-05T10:53:27.090Z,99122.51
2019-03-05T10:55:57.798Z,99283.84
2019-03-05T10:58:33.820Z,99276.63
2019-03-05T11:01:01.032Z,99273.98
2019-03-05T11:03:31.932Z,99270.72
2019-03-05T11:06:02.820Z,99267.78
2019-03-05T11:08:33.278Z,99262.25
2019-03-05T11:11:12.995Z,99260.50
2019-03-05T11:13:36.267Z,99262.61
2019-03-05T11:16:07.101Z,99252.38
2019-03-05T11:18:38.560Z,99243.48
2019-03-05T11:21:09.362Z,99238.09
2019-03-05T11:23:39.949Z,99235.70
2019-03-05T11:26:10.583Z,99235.47
2019-03-05T11:28:41.053Z,99225.94
2019-03-05T11:31:11.728Z,99220.89
2019-03-05T11:33:42.237Z,99218.48
2019-03-05T11:36:12.849Z,99206.80
2019-03-05T11:38:43.512Z,99203.55
2019-03-05T11:41:14.073Z,99198.86
2019-03-05T11:43:44.684Z,99192.88
2019-03-05T11:46:17.958Z,99192.06
2019-03-05T11:48:48.467Z,99189.67
2019-03-05T11:51:18.950Z,99184.72
2019-03-05T11:53:49.487Z,99188.69
2019-03-05T11:56:19.963Z,99186.42
2019-03-05T11:58:50.429Z,99181.47
2019-03-05T12:01:34.242Z,99179.73
2019-03-05T12:04:04.719Z,99176.98
2019-03-05T12:06:35.319Z,99173.17
2019-03-05T12:09:07.749Z,99173.34
2019-03-05T12:11:38.223Z,99174.00
2019-03-05T12:14:08.746Z,99170.95
2019-03-05T12:16:41.611Z,99168.66
2019-03-05T12:19:11.844Z,99170.23
2019-03-05T12:21:42.549Z,99170.58
2019-03-05T12:24:13.091Z,99173.27
2019-03-05T12:26:43.524Z,99172.27
2019-03-05T12:29:14.006Z,99177.03
2019-03-05T12:31:44.522Z,99163.92
2019-03-05T12:34:15.484Z,99172.00
2019-03-05T12:36:46.150Z,99166.56
2019-03-05T12:39:19.317Z,99165.89
2019-03-05T12:41:49.797Z,99169.08
2019-03-05T12:44:20.304Z,99163.81
2019-03-05T12:46:50.780Z,99164.47
2019-03-05T12:49:21.285Z,99167.61
2019-03-05T12:51:51.793Z,99163.61
2019-03-05T12:54:22.264Z,99164.58
2019-03-05T12:56:52.779Z,99163.39
2019-03-05T12:59:23.241Z,99167.82
2019-03-05T13:01:53.860Z,99166.33
2019-03-05T13:04:24.405Z,99165.27
2019-03-05T13:06:54.916Z,99167.59
2019-03-05T13:09:25.503Z,99171.86
2019-03-05T13:11:56.014Z,99170.64
2019-03-05T13:14:26.555Z,99172.95
2019-03-05T13:16:57.111Z,99172.27
2019-03-05T13:19:27.683Z,99170.93
2019-03-05T13:21:58.197Z,99168.71
2019-03-05T13:24:29.687Z,99169.32
2019-03-05T13:27:00.205Z,99169.59
2019-03-05T13:29:30.704Z,99072.09
2019-03-05T13:32:01.201Z,99160.97
2019-03-05T13:34:31.742Z,99163.47
2019-03-05T13:37:02.224Z,99170.08
2019-03-05T13:39:32.921Z,99162.41
2019-03-05T13:42:03.476Z,99166.55
2019-03-05T13:44:35.528Z,99165.90
2019-03-05T13:47:08.362Z,99166.31
2019-03-05T13:50:25.402Z,99165.77
2019-03-05T13:53:14.567Z,99162.55
2019-03-05T13:56:05.043Z,99159.59
2019-03-05T13:59:18.288Z,99163.68
2019-03-05T14:01:48.776Z,99170.59
2019-03-05T14:04:25.775Z,99163.80
2019-03-05T14:07:10.661Z,99164.77
2019-03-05T14:09:39.170Z,99165.58
2019-03-05T14:12:09.690Z,99164.00
2019-03-05T14:14:40.182Z,99159.91
2019-03-05T14:17:17.899Z,99161.22
2019-03-05T14:19:48.502Z,99161.63
2019-03-05T14:22:18.948Z,99164.97
2019-03-05T14:24:58.286Z,99166.34
2019-03-05T14:27:21.854Z,99073.27
2019-03-05T14:29:52.483Z,99180.59
2019-03-05T14:32:23.214Z,99181.97
2019-03-05T14:35:06.511Z,99183.46
2019-03-05T14:37:37.101Z,99179.61
2019-03-05T14:40:23.386Z,99184.88
2019-03-05T14:42:43.014Z,99181.70
2019-03-05T14:45:18.415Z,99181.13
2019-03-05T14:47:49.104Z,99177.92
2019-03-05T14:50:19.724Z,99178.30
2019-03-05T14:52:50.397Z,99177.66
2019-03-05T14:55:20.932Z,99182.59
2019-03-05T14:57:51.694Z,99186.19
2019-03-05T15:00:22.658Z,99196.27
2019-03-05T15:02:53.336Z,99193.28
2019-03-05T15:05:23.901Z,99195.08
2019-03-05T15:07:54.531Z,99193.58
2019-03-05T15:10:25.141Z,99182.45
2019-03-05T15:12:55.940Z,99183.84
2019-03-05T15:15:28.297Z,99200.03
2019-03-05T15:17:58.890Z,99199.33
2019-03-05T15:20:29.378Z,99197.89
2019-03-05T15:23:00.037Z,99196.81
2019-03-05T15:25:30.590Z,99200.50
2019-03-05T15:28:01.167Z,99203.36
2019-03-05T15:30:31.897Z,99205.97
2019-03-05T15:33:03.945Z,99206.67
2019-03-05T15:35:34.687Z,99202.34
2019-03-05T15:38:05.352Z,99204.88
2019-03-05T15:40:35.900Z,99212.48
2019-03-05T15:43:06.454Z,99202.48
2019-03-05T15:45:36.954Z,99210.58
2019-03-05T15:48:07.707Z,99213.18
2019-03-05T15:50:38.245Z,99220.25
2019-03-05T15:53:08.706Z,99225.87
2019-03-05T15:55:39.166Z,99221.64
2019-03-05T15:58:09.730Z,99216.34
2019-03-05T16:00:40.633Z,99218.70
2019-03-05T16:03:11.105Z,99225.10
2019-03-05T16:05:41.808Z,99223.27
2019-03-05T16:08:12.270Z,99221.17
2019-03-05T16:10:42.769Z,99226.25
2019-03-05T16:13:15.351Z,99229.13
2019-03-05T16:15:46.893Z,99229.25
2019-03-05T16:18:17.406Z,99231.63
2019-03-05T16:20:47.886Z,99230.08
2019-03-05T16:23:18.397Z,99233.41
2019-03-05T16:25:50.363Z,99228.61
2019-03-05T16:28:21.628Z,99231.99
2019-03-05T16:31:21.714Z,99244.15
2019-03-05T16:34:16.816Z,99244.58
2019-03-05T16:37:14.880Z,99252.43
2019-03-05T16:39:54.087Z,99254.98
2019-03-05T16:42:34.895Z,99265.23
2019-03-05T16:45:23.458Z,99263.42
2019-03-05T16:48:12.797Z,99268.71
2019-03-05T16:50:54.957Z,99278.09
2019-03-05T16:53:52.789Z,99277.13
2019-03-05T16:56:48.456Z,99268.71
2019-03-05T16:59:43.658Z,99269.92
2019-03-05T17:02:28.976Z,99272.66
2019-03-05T17:05:36.613Z,99278.42
2019-03-05T17:08:34.901Z,99277.13
2019-03-05T17:11:33.228Z,99278.88
2019-03-05T17:14:03.980Z,99287.20
2019-03-05T17:16:35.033Z,99294.29
2019-03-05T17:19:05.498Z,99313.17
2019-03-05T17:21:36.105Z,99304.16
2019-03-05T17:24:06.968Z,99307.45
2019-03-05T17:26:37.679Z,99318.41
2019-03-05T17:29:08.182Z,99320.94
2019-03-05T17:31:38.789Z,99323.47
2019-03-05T17:34:09.249Z,99335.05
2019-03-05T17:36:40.014Z,99344.06
2019-03-05T17:39:17.813Z,99349.29
2019-03-05T17:41:48.545Z,99351.78
2019-03-05T17:44:19.130Z,99349.91
2019-03-05T17:46:49.951Z,99358.23
2019-03-05T17:49:20.518Z,99370.27
2019-03-05T17:51:51.053Z,99364.85
2019-03-05T17:54:21.671Z,99370.35
2019-03-05T17:56:52.461Z,99371.75
2019-03-05T17:59:22.996Z,99362.19
2019-03-05T18:01:53.491Z,99366.05
2019-03-05T18:04:23.957Z,99372.08
2019-03-05T18:06:54.452Z,99382.83
2019-03-05T18:09:25.019Z,99390.78
2019-03-05T18:11:55.638Z,99405.31
2019-03-05T18:14:26.111Z,99412.13
2019-03-05T18:16:56.717Z,99423.63
2019-03-05T18:19:27.405Z,99425.83
2019-03-05T18:21:57.887Z,99437.84
2019-03-05T18:24:28.493Z,99444.98
2019-03-05T18:26:58.945Z,99456.52
2019-03-05T18:29:29.440Z,99445.04
2019-03-05T18:31:59.954Z,99436.62
2019-03-05T18:34:30.410Z,99438.23
2019-03-05T18:37:00.870Z,99436.11
2019-03-05T18:39:31.364Z,99435.58
2019-03-05T18:42:01.909Z,99428.48
2019-03-05T18:44:32.429Z,99422.77
2019-03-05T18:47:02.899Z,99434.55
2019-03-05T18:49:33.360Z,99429.11
2019-03-05T18:52:03.860Z,99425.56
2019-03-05T18:54:34.313Z,99425.05
2019-03-05T18:57:04.767Z,99425.05
2019-03-05T18:59:35.272Z,99422.63
2019-03-05T19:02:05.939Z,99429.45
2019-03-05T19:04:36.433Z,99429.72
2019-03-05T19:07:06.933Z,99433.23
2019-03-05T19:09:37.430Z,99440.34
2019-03-05T19:12:08.017Z,99455.91
2019-03-05T19:14:38.653Z,99474.18
2019-03-05T19:17:09.250Z,99497.91
2019-03-05T19:19:39.759Z,99503.66
2019-03-05T19:22:10.275Z,99482.92
2019-03-05T19:24:40.744Z,99489.46
2019-03-05T19:27:11.261Z,99493.82
2019-03-05T19:29:41.828Z,99500.64
2019-03-05T19:32:12.444Z,99499.02
2019-03-05T19:34:43.011Z,99497.09
2019-03-05T19:37:14.000Z,99493.80
2019-03-05T19:39:44.465Z,99494.88
2019-03-05T19:42:15.021Z,99496.23
2019-03-05T19:44:45.494Z,99497.05
2019-03-05T19:47:16.002Z,99495.42
2019-03-05T19:49:46.467Z,99503.31
2019-03-05T19:52:16.963Z,99515.30
2019-03-05T19:54:47.433Z,99510.10
2019-03-05T19:57:17.910Z,99509.88
2019-03-05T19:59:48.500Z,99519.68
2019-03-05T20:02:18.971Z,99518.88
2019-03-05T20:04:49.446Z,99519.72
2019-03-05T20:07:19.982Z,99523.52
2019-03-05T20:09:50.537Z,99530.63
2019-03-05T20:12:21.012Z,99534.42
2019-03-05T20:14:51.522Z,99539.88
2019-03-05T20:17:22.029Z,99545.08
2019-03-05T20:19:52.571Z,99545.34
2019-03-05T20:22:23.035Z,99552.16
2019-03-05T20:24:53.501Z,99554.62
2019-03-05T20:27:24.010Z,99554.88
2019-03-05T20:29:54.460Z,99557.32
2019-03-05T20:32:25.346Z,99572.88
2019-03-05T20:34:55.852Z,99572.06
2019-03-05T20:37:26.357Z,99576.15
2019-03-05T20:39:56.912Z,99583.23
2019-03-05T20:42:27.415Z,99585.95
2019-03-05T20:44:57.926Z,99597.42
2019-03-05T20:47:28.386Z,99596.05
2019-03-05T20:49:58.889Z,99600.41
2019-03-05T20:52:29.352Z,99602.84
2019-03-05T20:54:59.873Z,99610.75
2019-03-05T20:57:30.518Z,99614.55
2019-03-05T21:00:00.988Z,99619.45
2019-03-05T21:02:31.501Z,99617.27
2019-03-05T21:05:01.970Z,99616.71
2019-03-05T21:07:32.758Z,99626.52
2019-03-05T21:10:03.373Z,99625.69
2019-03-05T21:12:33.854Z,99642.81
2019-03-05T21:15:04.431Z,99645.02
2019-03-05T21:17:35.141Z,99653.20
2019-03-05T21:20:06.076Z,99660.28
2019-03-05T21:22:36.537Z,99657.55
2019-03-05T21:25:07.941Z,99656.99
2019-03-05T21:27:38.407Z,99660.28
2019-03-05T21:30:11.948Z,99659.21
2019-03-05T21:32:42.409Z,99659.73
2019-03-05T21:35:13.249Z,99663.55
2019-03-05T21:37:43.994Z,99659.72
2019-03-05T21:40:19.532Z,99657.80
2019-03-05T21:42:50.097Z,99657.78
2019-03-05T21:45:29.386Z,99658.59
2019-03-05T21:47:59.849Z,99661.58
2019-03-05T21:50:30.577Z,99660.20
2019-03-05T21:53:01.183Z,99658.27
2019-03-05T21:55:31.636Z,99666.99
2019-03-05T21:58:02.123Z,99651.39
2019-03-05T22:00:32.918Z,99669.36
2019-03-05T22:03:03.598Z,99667.72
2019-03-05T22:05:34.304Z,99673.66
2019-03-05T22:08:04.792Z,99666.27
2019-03-05T22:10:35.673Z,99669.45
2019-03-05T22:13:06.238Z,99671.87
2019-03-05T22:15:37.271Z,99673.22
2019-03-05T22:18:07.817Z,99668.28
2019-03-05T22:20:38.406Z,99676.70
2019-03-05T22:23:08.865Z,99672.06
2019-03-05T22:25:39.322Z,99673.92
2019-03-05T22:28:09.844Z,99673.09
2019-03-05T22:30:40.422Z,99679.88
2019-03-05T22:33:11.195Z,99676.01
2019-03-05T22:35:41.701Z,99686.86
2019-03-05T22:38:12.260Z,99687.66
2019-03-05T22:40:42.732Z,99691.72
2019-03-05T22:43:13.242Z,99691.70
2019-03-05T22:45:43.742Z,99696.03
2019-03-05T22:48:14.241Z,99577.11
2019-03-05T22:50:44.698Z,99699.55
2019-03-05T22:53:15.205Z,99704.66
2019-03-05T22:55:45.878Z,99720.74
2019-03-05T22:58:16.342Z,99730.80
2019-03-05T23:01:18.722Z,99734.48
2019-03-05T23:03:57.539Z,99742.08
2019-03-05T23:06:28.506Z,99745.59
2019-03-05T23:08:59.106Z,99747.42
2019-03-05T23:11:30.116Z,99754.15
2019-03-05T23:14:00.716Z,99763.18
2019-03-05T23:16:31.435Z,99768.56
2019-03-05T23:19:02.080Z,99771.05
2019-03-05T23:21:32.662Z,99783.08
2019-03-05T23:24:03.165Z,99787.42
2019-03-05T23:26:33.821Z,99793.44
2019-03-05T23:29:05.932Z,99796.73
2019-03-05T23:31:36.489Z,99798.38
2019-03-05T23:34:07.040Z,99803.48
2019-03-05T23:36:37.644Z,99813.06
2019-03-05T23:39:09.781Z,99833.85
2019-03-05T23:41:40.277Z,99843.47
2019-03-05T23:44:10.887Z,99849.18
2019-03-05T23:46:41.393Z,99850.88
2019-03-05T23:49:12.008Z,99730.66
2019-03-05T23:51:42.488Z,99872.52
2019-03-05T23:54:12.978Z,99854.29
2019-03-05T23:56:43.491Z,99880.99
2019-03-05T23:59:13.944Z,99864.20
